Time;durP1;ratioP1;P1;durP2;ratioP2;P2;SDS_P1;SDS_P2;PMS_P1;PMS_P2;Temp;Humidity;BMP_temperature;BMP_pressure;BME280_temperature;BME280_humidity;BME280_pressure;Samples;Min_cycle;Max_cycle;Signal;HPM_P1;HPM_P2
2023/07/05 00:01:24;;;;;;;;;;;20.30;57.50;;;;;;5071553;28;19978;-53
2023/07/05 00:03:49;;;;;;;;;;;20.30;57.50;;;;;;5072452;28;19992;-53
2023/07/05 00:06:15;;;;;;;;;;;20.30;57.60;;;;;;5070073;28;20331;-53
2023/07/05 00:08:40;;;;;;;;;;;20.30;57.60;;;;;;5071745;28;19958;-53
2023/07/05 00:11:06;;;;;;;;;;;20.30;57.60;;;;;;5060530;28;19958;-53
2023/07/05 00:13:32;;;;;;;;;;;20.30;57.50;;;;;;5058944;28;20358;-53
2023/07/05 00:15:59;;;;;;;;;;;20.30;57.50;;;;;;5072328;28;20209;-53
2023/07/05 00:18:25;;;;;;;;;;;20.30;57.50;;;;;;5072165;28;19912;-53
2023/07/05 00:20:50;;;;;;;;;;;20.20;57.40;;;;;;5070442;28;19913;-53
2023/07/05 00:23:16;;;;;;;;;;;20.30;57.50;;;;;;5070471;28;19912;-53
2023/07/05 00:25:41;;;;;;;;;;;20.20;57.40;;;;;;5065450;28;19913;-54
2023/07/05 00:28:06;;;;;;;;;;;20.30;57.50;;;;;;5051917;28;19909;-53
2023/07/05 00:30:32;;;;;;;;;;;20.20;57.40;;;;;;5052064;28;19919;-54
2023/07/05 00:32:57;;;;;;;;;;;20.20;57.40;;;;;;5051738;28;20043;-53
2023/07/05 00:35:23;;;;;;;;;;;20.20;57.40;;;;;;5051576;28;19917;-53
2023/07/05 00:37:48;;;;;;;;;;;20.20;57.40;;;;;;5058367;28;19916;-53
2023/07/05 00:40:14;;;;;;;;;;;20.20;57.40;;;;;;5069350;28;19938;-53
2023/07/05 00:42:39;;;;;;;;;;;20.20;57.40;;;;;;5058433;28;19959;-53
2023/07/05 00:45:11;;;;;;;;;;;20.20;57.60;;;;;;5071160;28;19924;-53
2023/07/05 00:47:42;;;;;;;;;;;20.20;57.60;;;;;;5059818;28;19916;-53
2023/07/05 00:50:19;;;;;;;;;;;20.20;57.50;;;;;;5067063;28;19917;-54
2023/07/05 00:52:45;;;;;;;;;;;20.20;57.50;;;;;;5070045;28;19924;-53
2023/07/05 00:55:10;;;;;;;;;;;20.20;57.60;;;;;;5072004;28;19908;-53
2023/07/05 00:57:36;;;;;;;;;;;20.20;57.60;;;;;;5059966;28;19924;-53
2023/07/05 01:00:08;;;;;;;;;;;20.10;57.40;;;;;;5051898;28;19981;-53
2023/07/05 01:02:38;;;;;;;;;;;20.10;57.50;;;;;;5050385;28;19916;-54
2023/07/05 01:05:04;;;;;;;;;;;20.10;57.50;;;;;;5058489;28;19963;-53
2023/07/05 01:07:30;;;;;;;;;;;20.10;57.50;;;;;;5060161;28;19916;-53
2023/07/05 01:09:56;;;;;;;;;;;20.10;57.50;;;;;;5060492;28;19921;-53
2023/07/05 01:12:31;;;;;;;;;;;20.10;57.60;;;;;;5051795;28;19909;-53
2023/07/05 01:15:03;;;;;;;;;;;20.10;57.60;;;;;;5051636;28;20391;-53
2023/07/05 01:17:47;;;;;;;;;;;20.10;57.70;;;;;;5051656;28;20284;-54
2023/07/05 01:20:32;;;;;;;;;;;20.10;57.70;;;;;;5052742;28;19917;-53
2023/07/05 01:23:16;;;;;;;;;;;20.10;57.70;;;;;;5070833;28;19916;-53
2023/07/05 01:26:00;;;;;;;;;;;20.10;57.60;;;;;;5071781;28;19947;-53
2023/07/05 01:28:25;;;;;;;;;;;20.10;57.60;;;;;;5071370;28;19924;-54
2023/07/05 01:31:17;;;;;;;;;;;20.10;57.60;;;;;;5071660;28;19908;-53
2023/07/05 01:33:54;;;;;;;;;;;20.10;57.40;;;;;;5047061;28;19912;-53
2023/07/05 01:36:19;;;;;;;;;;;20.10;57.40;;;;;;5046640;28;20003;-53
2023/07/05 01:38:45;;;;;;;;;;;20.10;57.70;;;;;;5073459;28;20411;-53
2023/07/05 01:41:10;;;;;;;;;;;20.10;57.70;;;;;;5063794;28;19916;-53
2023/07/05 01:43:37;;;;;;;;;;;20.10;57.70;;;;;;5071235;28;19916;-53
2023/07/05 01:46:11;;;;;;;;;;;20.10;58.40;;;;;;5073600;28;20372;-54
2023/07/05 01:48:56;;;;;;;;;;;20.10;57.70;;;;;;5074832;28;19998;-53
2023/07/05 01:51:22;;;;;;;;;;;20.00;57.80;;;;;;5067946;28;19912;-53
2023/07/05 01:53:53;;;;;;;;;;;20.00;57.90;;;;;;5053333;28;19932;-53
2023/07/05 01:56:20;;;;;;;;;;;20.00;58.00;;;;;;5054888;28;19980;-53
2023/07/05 01:58:46;;;;;;;;;;;20.00;58.20;;;;;;5054669;28;19920;-53
2023/07/05 02:01:12;;;;;;;;;;;20.00;58.10;;;;;;5054647;28;19916;-53
2023/07/05 02:03:38;;;;;;;;;;;20.00;58.20;;;;;;5053354;28;19909;-54
2023/07/05 02:06:04;;;;;;;;;;;20.00;58.20;;;;;;5054189;28;19910;-53
2023/07/05 02:08:30;;;;;;;;;;;20.00;58.20;;;;;;5070998;28;19912;-53
2023/07/05 02:10:55;;;;;;;;;;;20.00;58.30;;;;;;5064171;28;19939;-53
2023/07/05 02:13:21;;;;;;;;;;;20.00;58.30;;;;;;5054296;28;20393;-53
2023/07/05 02:15:50;;;;;;;;;;;20.00;58.30;;;;;;5054450;28;20323;-53
2023/07/05 02:18:16;;;;;;;;;;;20.00;58.20;;;;;;5054265;28;20347;-53
2023/07/05 02:20:41;;;;;;;;;;;20.00;58.20;;;;;;5072679;28;19909;-53
2023/07/05 02:23:07;;;;;;;;;;;20.00;58.30;;;;;;5070148;28;19952;-53
2023/07/05 02:25:32;;;;;;;;;;;20.00;58.30;;;;;;5074310;28;19908;-53
2023/07/05 02:27:58;;;;;;;;;;;20.00;58.30;;;;;;5074071;28;19992;-53
2023/07/05 02:30:26;;;;;;;;;;;20.00;58.20;;;;;;5072236;28;20003;-53
2023/07/05 02:32:51;;;;;;;;;;;20.00;58.30;;;;;;5052657;28;19966;-53
2023/07/05 02:35:17;;;;;;;;;;;20.00;58.40;;;;;;5052870;28;19909;-53
2023/07/05 02:37:42;;;;;;;;;;;20.00;58.50;;;;;;5061185;28;19909;-53
2023/07/05 02:40:08;;;;;;;;;;;20.00;58.50;;;;;;5071512;28;19919;-53
2023/07/05 02:42:33;;;;;;;;;;;20.00;58.50;;;;;;5057047;28;19915;-53
2023/07/05 02:44:59;;;;;;;;;;;20.00;58.40;;;;;;5073682;28;19923;-53
2023/07/05 02:47:24;;;;;;;;;;;20.00;58.40;;;;;;5073299;28;19912;-53
2023/07/05 02:49:49;;;;;;;;;;;20.00;58.40;;;;;;5073780;28;19923;-53
2023/07/05 02:52:15;;;;;;;;;;;20.00;58.30;;;;;;5071393;28;19920;-53
2023/07/05 02:54:41;;;;;;;;;;;20.00;58.30;;;;;;5053210;28;20004;-53
2023/07/05 02:57:06;;;;;;;;;;;20.00;58.20;;;;;;5053687;28;19908;-53
2023/07/05 02:59:32;;;;;;;;;;;20.00;58.20;;;;;;5052232;28;20416;-54
2023/07/05 03:01:57;;;;;;;;;;;20.00;58.00;;;;;;5053730;28;19909;-53
2023/07/05 03:04:23;;;;;;;;;;;20.00;58.10;;;;;;5053286;28;20457;-54
2023/07/05 03:06:48;;;;;;;;;;;20.00;58.00;;;;;;5053029;28;19908;-53
2023/07/05 03:09:14;;;;;;;;;;;20.00;58.10;;;;;;5052923;28;20376;-53
2023/07/05 03:11:40;;;;;;;;;;;20.00;58.10;;;;;;5053505;28;19956;-53
2023/07/05 03:14:05;;;;;;;;;;;20.00;58.10;;;;;;5054780;28;20666;-53
2023/07/05 03:16:31;;;;;;;;;;;20.00;58.10;;;;;;5068104;28;19920;-53
2023/07/05 03:18:56;;;;;;;;;;;20.00;58.10;;;;;;5053195;28;19955;-53
2023/07/05 03:21:22;;;;;;;;;;;20.00;58.10;;;;;;5052702;28;19909;-54
2023/07/05 03:23:47;;;;;;;;;;;20.00;58.20;;;;;;5055108;28;19913;-54
2023/07/05 03:26:13;;;;;;;;;;;20.00;58.20;;;;;;5052914;28;19913;-53
2023/07/05 03:28:38;;;;;;;;;;;20.00;58.40;;;;;;5055948;28;20368;-53
2023/07/05 03:31:05;;;;;;;;;;;20.00;58.40;;;;;;5072740;28;19912;-53
2023/07/05 03:33:30;;;;;;;;;;;20.00;58.30;;;;;;5072815;28;19912;-53
2023/07/05 03:36:03;;;;;;;;;;;20.00;58.30;;;;;;5072808;28;20387;-53
2023/07/05 03:38:29;;;;;;;;;;;20.00;58.50;;;;;;5071413;28;20360;-53
2023/07/05 03:41:01;;;;;;;;;;;20.00;58.50;;;;;;5067433;28;19919;-53
2023/07/05 03:43:27;;;;;;;;;;;20.00;58.30;;;;;;5072681;28;20229;-53
2023/07/05 03:45:53;;;;;;;;;;;19.90;58.20;;;;;;5066158;28;19925;-53
2023/07/05 03:48:21;;;;;;;;;;;20.00;58.30;;;;;;5064180;28;19913;-53
2023/07/05 03:50:47;;;;;;;;;;;19.90;58.30;;;;;;5065031;28;20343;-54
2023/07/05 03:53:12;;;;;;;;;;;19.90;58.40;;;;;;5058002;28;20011;-53
2023/07/05 03:55:38;;;;;;;;;;;19.90;58.20;;;;;;5071002;28;20288;-53
2023/07/05 03:58:03;;;;;;;;;;;19.90;58.30;;;;;;5072090;28;19999;-53
2023/07/05 04:00:29;;;;;;;;;;;19.90;58.40;;;;;;5070660;28;19916;-53
2023/07/05 04:02:54;;;;;;;;;;;19.90;58.60;;;;;;5070262;28;19912;-53
2023/07/05 04:05:20;;;;;;;;;;;19.90;58.60;;;;;;5072496;28;19916;-53
2023/07/05 04:07:45;;;;;;;;;;;19.90;58.60;;;;;;5071189;28;20351;-54
2023/07/05 04:10:11;;;;;;;;;;;19.90;58.70;;;;;;5052493;28;19939;-54
2023/07/05 04:12:36;;;;;;;;;;;19.90;58.80;;;;;;5058591;28;19916;-54
2023/07/05 04:15:02;;;;;;;;;;;19.90;58.80;;;;;;5071548;28;19908;-54
2023/07/05 04:17:28;;;;;;;;;;;19.90;58.90;;;;;;5069654;28;19912;-53
2023/07/05 04:19:54;;;;;;;;;;;19.90;58.90;;;;;;5055242;28;19952;-54
2023/07/05 04:22:19;;;;;;;;;;;19.90;59.00;;;;;;5051973;28;19956;-53
2023/07/05 04:24:45;;;;;;;;;;;19.80;59.00;;;;;;5052059;28;19913;-53
2023/07/05 04:27:10;;;;;;;;;;;19.90;59.00;;;;;;5064733;28;19917;-53
2023/07/05 04:29:36;;;;;;;;;;;19.80;59.10;;;;;;5054548;28;19921;-53
2023/07/05 04:32:01;;;;;;;;;;;19.80;59.40;;;;;;5069810;28;19913;-53
2023/07/05 04:34:26;;;;;;;;;;;19.80;59.50;;;;;;5070898;28;19915;-53
2023/07/05 04:36:52;;;;;;;;;;;19.80;59.50;;;;;;5071668;28;20420;-53
2023/07/05 04:39:17;;;;;;;;;;;19.80;59.60;;;;;;5072163;28;20369;-53
2023/07/05 04:41:43;;;;;;;;;;;19.80;59.80;;;;;;5064649;28;19993;-53
2023/07/05 04:44:09;;;;;;;;;;;19.80;59.90;;;;;;5051774;28;19912;-53
2023/07/05 04:46:35;;;;;;;;;;;19.70;60.00;;;;;;5050051;28;19925;-53
2023/07/05 04:49:00;;;;;;;;;;;19.80;60.10;;;;;;5053571;28;20428;-53
2023/07/05 04:51:26;;;;;;;;;;;19.70;60.10;;;;;;5059155;28;19916;-53
2023/07/05 04:53:51;;;;;;;;;;;19.70;60.10;;;;;;5056042;28;20645;-54
2023/07/05 04:56:17;;;;;;;;;;;19.70;60.20;;;;;;5070999;28;19912;-53
2023/07/05 04:58:42;;;;;;;;;;;19.70;60.40;;;;;;5071769;28;20360;-53
2023/07/05 05:01:08;;;;;;;;;;;19.70;60.60;;;;;;5058635;28;19916;-53
2023/07/05 05:03:33;;;;;;;;;;;19.70;60.70;;;;;;5052104;28;19966;-53
2023/07/05 05:05:59;;;;;;;;;;;19.70;60.70;;;;;;5052616;28;20578;-53
2023/07/05 05:08:24;;;;;;;;;;;19.70;60.60;;;;;;5071290;28;19994;-53
2023/07/05 05:10:50;;;;;;;;;;;19.70;60.90;;;;;;5063542;28;19920;-53
2023/07/05 05:13:15;;;;;;;;;;;19.80;61.00;;;;;;5069752;28;19927;-53
2023/07/05 05:15:41;;;;;;;;;;;19.70;61.00;;;;;;5075905;28;20379;-54
2023/07/05 05:18:07;;;;;;;;;;;19.70;61.10;;;;;;5073834;28;19908;-53
2023/07/05 05:20:32;;;;;;;;;;;19.70;61.20;;;;;;5074004;28;20010;-53
2023/07/05 05:22:58;;;;;;;;;;;19.70;61.20;;;;;;5063467;28;19916;-54
2023/07/05 05:25:24;;;;;;;;;;;19.70;61.20;;;;;;5061184;28;19913;-53
2023/07/05 05:27:50;;;;;;;;;;;19.70;61.40;;;;;;5055015;28;19913;-54
2023/07/05 05:30:15;;;;;;;;;;;19.70;61.40;;;;;;5055173;28;19977;-53
2023/07/05 05:32:41;;;;;;;;;;;19.70;61.40;;;;;;5066537;28;19959;-53
2023/07/05 05:35:06;;;;;;;;;;;19.70;61.50;;;;;;5075289;28;19912;-53
2023/07/05 05:37:32;;;;;;;;;;;19.70;61.70;;;;;;5072631;28;19920;-54
2023/07/05 05:39:57;;;;;;;;;;;19.70;61.50;;;;;;5067959;28;19912;-53
2023/07/05 05:42:23;;;;;;;;;;;19.70;61.50;;;;;;5062754;28;19917;-53
2023/07/05 05:44:48;;;;;;;;;;;19.70;61.70;;;;;;5074781;28;19916;-53
2023/07/05 05:47:14;;;;;;;;;;;19.60;61.80;;;;;;5074780;28;19927;-53
2023/07/05 05:49:39;;;;;;;;;;;19.60;61.90;;;;;;5074731;28;19931;-53
2023/07/05 05:52:05;;;;;;;;;;;19.70;62.10;;;;;;5064688;28;19923;-54
2023/07/05 05:54:30;;;;;;;;;;;19.60;62.20;;;;;;5071044;28;19966;-53
2023/07/05 05:56:55;;;;;;;;;;;19.60;62.20;;;;;;5073845;28;19971;-53
2023/07/05 05:59:21;;;;;;;;;;;19.60;62.30;;;;;;5074574;28;20091;-54
2023/07/05 06:01:46;;;;;;;;;;;19.60;62.20;;;;;;5060132;28;19952;-54
2023/07/05 06:04:12;;;;;;;;;;;19.60;62.40;;;;;;5069457;28;19912;-53
2023/07/05 06:06:37;;;;;;;;;;;19.60;62.50;;;;;;5072432;28;20376;-53
2023/07/05 06:09:03;;;;;;;;;;;19.60;62.30;;;;;;5072316;28;19916;-53
2023/07/05 06:11:28;;;;;;;;;;;19.60;62.40;;;;;;5059221;28;19909;-53
2023/07/05 06:13:54;;;;;;;;;;;19.60;62.50;;;;;;5071191;28;20050;-53
2023/07/05 06:16:19;;;;;;;;;;;19.60;62.60;;;;;;5070394;28;19916;-53
2023/07/05 06:18:45;;;;;;;;;;;19.60;62.80;;;;;;5066256;28;19916;-53
2023/07/05 06:21:11;;;;;;;;;;;19.60;62.80;;;;;;5057909;28;19935;-54
2023/07/05 06:23:36;;;;;;;;;;;19.60;62.70;;;;;;5053805;28;19919;-54
2023/07/05 06:26:03;;;;;;;;;;;19.60;62.80;;;;;;5053870;28;20285;-54
2023/07/05 06:28:28;;;;;;;;;;;19.60;62.90;;;;;;5065428;28;19980;-53
2023/07/05 06:30:53;;;;;;;;;;;19.60;62.80;;;;;;5054415;28;19916;-54
2023/07/05 06:33:19;;;;;;;;;;;19.60;63.00;;;;;;5062277;28;20368;-53
2023/07/05 06:35:48;;;;;;;;;;;19.60;63.00;;;;;;5067181;28;20273;-53
2023/07/05 06:38:13;;;;;;;;;;;19.60;63.00;;;;;;5053692;28;20064;-53
2023/07/05 06:40:39;;;;;;;;;;;19.60;63.10;;;;;;5054322;28;20007;-53
2023/07/05 06:43:04;;;;;;;;;;;19.60;63.50;;;;;;5056835;28;19919;-54
2023/07/05 06:45:30;;;;;;;;;;;19.60;63.60;;;;;;5063985;28;20389;-55
2023/07/05 06:47:55;;;;;;;;;;;19.60;63.50;;;;;;5053339;28;20331;-53
2023/07/05 06:50:21;;;;;;;;;;;19.60;63.50;;;;;;5053029;28;19920;-53
2023/07/05 06:52:46;;;;;;;;;;;19.60;63.80;;;;;;5054652;28;19967;-53
2023/07/05 06:55:12;;;;;;;;;;;19.60;63.80;;;;;;5061259;28;20257;-53
2023/07/05 06:57:37;;;;;;;;;;;19.60;64.00;;;;;;5058151;28;20296;-53
2023/07/05 07:00:06;;;;;;;;;;;19.50;64.30;;;;;;5060134;28;20027;-53
2023/07/05 07:02:31;;;;;;;;;;;19.50;64.60;;;;;;5055162;28;20015;-53
2023/07/05 07:04:56;;;;;;;;;;;19.50;64.70;;;;;;5061630;28;20285;-53
2023/07/05 07:07:22;;;;;;;;;;;19.50;64.80;;;;;;5070788;28;19912;-53
2023/07/05 07:09:48;;;;;;;;;;;19.50;64.90;;;;;;5073029;28;19972;-53
2023/07/05 07:12:14;;;;;;;;;;;19.50;64.90;;;;;;5052142;28;19909;-53
2023/07/05 07:14:39;;;;;;;;;;;19.50;64.90;;;;;;5066548;28;19920;-53
2023/07/05 07:17:05;;;;;;;;;;;19.50;65.00;;;;;;5073145;28;19966;-53
2023/07/05 07:19:30;;;;;;;;;;;19.50;65.00;;;;;;5073132;28;19962;-53
2023/07/05 07:21:56;;;;;;;;;;;19.50;65.20;;;;;;5070855;28;19917;-53
2023/07/05 07:24:21;;;;;;;;;;;19.50;65.20;;;;;;5072998;28;20360;-53
2023/07/05 07:26:46;;;;;;;;;;;19.50;65.30;;;;;;5061537;28;20335;-53
2023/07/05 07:29:12;;;;;;;;;;;19.50;65.10;;;;;;5069437;28;19916;-53
2023/07/05 07:31:37;;;;;;;;;;;19.50;65.00;;;;;;5064151;28;19952;-53
2023/07/05 07:34:05;;;;;;;;;;;19.50;65.20;;;;;;5067098;28;19974;-53
2023/07/05 07:36:30;;;;;;;;;;;19.50;65.30;;;;;;5055131;28;19917;-54
2023/07/05 07:38:56;;;;;;;;;;;19.50;65.40;;;;;;5054782;28;19924;-53
2023/07/05 07:41:22;;;;;;;;;;;19.50;65.60;;;;;;5057663;28;19916;-53
2023/07/05 07:43:51;;;;;;;;;;;19.50;65.70;;;;;;5053657;28;19913;-53
2023/07/05 07:46:18;;;;;;;;;;;19.50;65.90;;;;;;5056892;28;19970;-53
2023/07/05 07:48:45;;;;;;;;;;;19.50;65.90;;;;;;5072457;28;19952;-54
2023/07/05 07:51:10;;;;;;;;;;;19.50;65.90;;;;;;5072100;28;20408;-54
2023/07/05 07:53:36;;;;;;;;;;;19.50;66.10;;;;;;5042258;28;19963;-54
2023/07/05 07:56:08;;;;;;;;;;;19.50;66.20;;;;;;5051734;28;20265;-54
2023/07/05 07:58:34;;;;;;;;;;;19.50;66.40;;;;;;5052568;28;19920;-54
2023/07/05 08:01:08;;;;;;;;;;;19.50;66.70;;;;;;5052253;28;20361;-54
2023/07/05 08:03:34;;;;;;;;;;;19.50;66.60;;;;;;5052165;28;19912;-54
2023/07/05 08:05:59;;;;;;;;;;;19.50;66.70;;;;;;5051000;28;19920;-54
2023/07/05 08:08:25;;;;;;;;;;;19.50;66.70;;;;;;5056840;28;20300;-54
2023/07/05 08:10:51;;;;;;;;;;;19.50;66.90;;;;;;5055356;28;19916;-54
2023/07/05 08:13:16;;;;;;;;;;;19.50;67.10;;;;;;5068978;28;19924;-54
2023/07/05 08:15:41;;;;;;;;;;;19.50;67.30;;;;;;5052945;28;19913;-54
2023/07/05 08:18:07;;;;;;;;;;;19.50;67.30;;;;;;5051517;28;20336;-54
2023/07/05 08:20:33;;;;;;;;;;;19.50;67.40;;;;;;5052220;28;19916;-54
2023/07/05 08:22:59;;;;;;;;;;;19.60;67.60;;;;;;5059368;28;20385;-54
2023/07/05 08:25:24;;;;;;;;;;;19.50;67.70;;;;;;5067731;28;19917;-54
2023/07/05 08:27:49;;;;;;;;;;;19.50;68.10;;;;;;5070764;28;19939;-54
2023/07/05 08:30:15;;;;;;;;;;;19.50;68.30;;;;;;5072098;28;19912;-54
2023/07/05 08:32:40;;;;;;;;;;;19.50;68.20;;;;;;5070587;28;19916;-55
2023/07/05 08:35:06;;;;;;;;;;;19.50;68.60;;;;;;5054612;28;19960;-54
2023/07/05 08:37:32;;;;;;;;;;;19.50;68.70;;;;;;5065780;28;19913;-54
2023/07/05 08:39:57;;;;;;;;;;;19.50;69.10;;;;;;5066593;28;20361;-54
2023/07/05 08:42:43;;;;;;;;;;;19.50;68.90;;;;;;5041736;28;19919;-54
2023/07/05 08:45:10;;;;;;;;;;;19.50;69.20;;;;;;5057712;28;19921;-54
2023/07/05 08:47:39;;;;;;;;;;;19.50;69.40;;;;;;5059394;28;19974;-54
2023/07/05 08:50:16;;;;;;;;;;;19.50;69.70;;;;;;5071741;28;19920;-54
2023/07/05 08:52:45;;;;;;;;;;;19.50;70.10;;;;;;5053466;28;19909;-55
2023/07/05 08:55:16;;;;;;;;;;;19.50;69.80;;;;;;5054890;28;19920;-54
2023/07/05 08:57:46;;;;;;;;;;;19.60;70.50;;;;;;5055663;28;20441;-54
2023/07/05 09:00:13;;;;;;;;;;;19.50;70.90;;;;;;5056539;28;19916;-54
2023/07/05 09:02:39;;;;;;;;;;;19.60;70.90;;;;;;5073551;28;19912;-54
2023/07/05 09:05:11;;;;;;;;;;;19.60;71.10;;;;;;5053564;28;20314;-55
2023/07/05 09:07:49;;;;;;;;;;;19.60;71.50;;;;;;5036761;28;19912;-54
2023/07/05 09:10:19;;;;;;;;;;;19.60;71.80;;;;;;5055779;28;19938;-53
2023/07/05 09:12:46;;;;;;;;;;;19.60;73.10;;;;;;5054117;28;20288;-54
2023/07/05 09:15:11;;;;;;;;;;;19.60;72.00;;;;;;5055575;28;19917;-54
2023/07/05 09:17:47;;;;;;;;;;;19.60;72.20;;;;;;5063754;28;20014;-54
2023/07/05 09:20:12;;;;;;;;;;;19.60;72.30;;;;;;5070059;28;20353;-54
2023/07/05 09:22:38;;;;;;;;;;;19.70;71.60;;;;;;5054901;28;20011;-54
2023/07/05 09:25:05;;;;;;;;;;;19.70;71.60;;;;;;5055754;28;20323;-54
2023/07/05 09:27:39;;;;;;;;;;;19.70;70.90;;;;;;5059756;28;19923;-54
2023/07/05 09:30:14;;;;;;;;;;;19.70;71.10;;;;;;5073961;28;20376;-54
2023/07/05 09:32:45;;;;;;;;;;;19.70;71.00;;;;;;5060319;28;19912;-54
2023/07/05 09:35:15;;;;;;;;;;;19.70;71.00;;;;;;5072071;28;19943;-54
2023/07/05 09:37:41;;;;;;;;;;;19.60;70.30;;;;;;5059917;28;19966;-54
2023/07/05 09:40:12;;;;;;;;;;;19.60;69.50;;;;;;5066392;28;19917;-54
2023/07/05 09:42:56;;;;;;;;;;;19.60;69.20;;;;;;5069107;28;20011;-54
2023/07/05 09:45:22;;;;;;;;;;;19.60;68.70;;;;;;5069752;28;20007;-54
2023/07/05 09:47:48;;;;;;;;;;;19.60;68.50;;;;;;5069003;28;20035;-54
2023/07/05 09:50:16;;;;;;;;;;;19.60;68.30;;;;;;5074774;28;19912;-54
2023/07/05 09:52:42;;;;;;;;;;;19.70;68.10;;;;;;5065677;28;20288;-54
2023/07/05 09:55:10;;;;;;;;;;;19.70;66.80;;;;;;5054850;28;19916;-54
2023/07/05 09:57:38;;;;;;;;;;;19.70;66.70;;;;;;5067084;28;20403;-53
2023/07/05 10:00:04;;;;;;;;;;;19.70;64.70;;;;;;5068653;28;19955;-54
2023/07/05 10:02:31;;;;;;;;;;;19.70;63.30;;;;;;5063970;28;20021;-54
2023/07/05 10:04:58;;;;;;;;;;;19.70;62.30;;;;;;5052827;28;19909;-54
2023/07/05 10:07:24;;;;;;;;;;;19.70;62.00;;;;;;5058952;28;19912;-54
2023/07/05 10:10:07;;;;;;;;;;;19.70;61.70;;;;;;5063871;28;19920;-54
2023/07/05 10:12:34;;;;;;;;;;;19.70;62.10;;;;;;5064785;28;20011;-54
2023/07/05 10:14:59;;;;;;;;;;;19.60;61.10;;;;;;5064697;28;20369;-53
2023/07/05 10:17:38;;;;;;;;;;;19.60;60.80;;;;;;5060632;28;20015;-54
2023/07/05 10:20:06;;;;;;;;;;;19.60;60.80;;;;;;5059247;28;19919;-54
2023/07/05 10:22:32;;;;;;;;;;;19.70;60.70;;;;;;5054025;28;20463;-54
2023/07/05 10:25:01;;;;;;;;;;;19.70;60.40;;;;;;5061354;28;19928;-54
2023/07/05 10:27:36;;;;;;;;;;;19.70;60.10;;;;;;5071194;28;19917;-54
2023/07/05 10:30:13;;;;;;;;;;;19.70;60.00;;;;;;5074048;28;19913;-54
2023/07/05 10:32:38;;;;;;;;;;;19.70;59.30;;;;;;5080674;28;20357;-54
2023/07/05 10:35:09;;;;;;;;;;;19.70;59.00;;;;;;5047696;28;19944;-54
2023/07/05 10:37:35;;;;;;;;;;;19.80;59.00;;;;;;5052346;28;20380;-54
2023/07/05 10:40:08;;;;;;;;;;;19.80;59.40;;;;;;5068392;28;20292;-54
2023/07/05 10:42:34;;;;;;;;;;;19.80;59.30;;;;;;5065995;28;20019;-54
2023/07/05 10:44:59;;;;;;;;;;;19.80;59.00;;;;;;5070235;28;19921;-54
2023/07/05 10:47:25;;;;;;;;;;;19.80;59.00;;;;;;5072592;28;20422;-54
2023/07/05 10:49:50;;;;;;;;;;;19.80;58.60;;;;;;5072298;28;19923;-54
2023/07/05 10:52:16;;;;;;;;;;;19.80;58.70;;;;;;5063713;28;20085;-54
2023/07/05 10:54:45;;;;;;;;;;;19.80;58.60;;;;;;5056963;28;19955;-54
2023/07/05 10:57:21;;;;;;;;;;;19.80;58.50;;;;;;5059284;28;20366;-54
2023/07/05 10:59:50;;;;;;;;;;;19.70;58.20;;;;;;5055525;28;19919;-54
2023/07/05 11:02:15;;;;;;;;;;;19.70;58.30;;;;;;5054787;28;20292;-54
2023/07/05 11:04:42;;;;;;;;;;;19.80;57.80;;;;;;5053274;28;19987;-53
2023/07/05 11:07:10;;;;;;;;;;;19.70;58.10;;;;;;5062549;28;20373;-54
2023/07/05 11:09:36;;;;;;;;;;;19.70;57.70;;;;;;5072617;28;19917;-54
2023/07/05 11:12:05;;;;;;;;;;;19.70;57.30;;;;;;5054932;28;19916;-54
2023/07/05 11:14:30;;;;;;;;;;;19.70;57.40;;;;;;5052034;28;20015;-54
2023/07/05 11:16:56;;;;;;;;;;;19.70;56.50;;;;;;5056232;28;20429;-54
2023/07/05 11:19:28;;;;;;;;;;;19.70;56.60;;;;;;5072771;28;19982;-55
2023/07/05 11:21:53;;;;;;;;;;;19.70;57.10;;;;;;5063197;28;20012;-54
2023/07/05 11:24:24;;;;;;;;;;;19.70;56.40;;;;;;5051253;28;19951;-54
2023/07/05 11:26:50;;;;;;;;;;;19.70;55.70;;;;;;5066800;28;19912;-54
2023/07/05 11:29:25;;;;;;;;;;;19.70;55.60;;;;;;5072808;28;19919;-54
2023/07/05 11:31:53;;;;;;;;;;;19.70;55.80;;;;;;5068763;28;19916;-54
2023/07/05 11:34:25;;;;;;;;;;;19.70;54.80;;;;;;5071503;28;19912;-54
2023/07/05 11:37:14;;;;;;;;;;;19.70;55.30;;;;;;5058833;28;19917;-54
2023/07/05 11:39:39;;;;;;;;;;;19.70;54.70;;;;;;5065353;28;19919;-54
2023/07/05 11:42:14;;;;;;;;;;;19.80;54.80;;;;;;5062566;28;19916;-54
2023/07/05 11:44:40;;;;;;;;;;;19.80;54.80;;;;;;5066979;28;19913;-54
2023/07/05 11:47:08;;;;;;;;;;;19.80;54.80;;;;;;5052515;28;19916;-54
2023/07/05 11:49:34;;;;;;;;;;;19.80;54.80;;;;;;5063432;28;20363;-54
2023/07/05 11:52:02;;;;;;;;;;;19.80;54.60;;;;;;5069395;28;19951;-54
2023/07/05 11:54:30;;;;;;;;;;;19.80;54.00;;;;;;5052225;28;20303;-56
2023/07/05 11:56:55;;;;;;;;;;;19.70;54.00;;;;;;5063552;28;19938;-54
2023/07/05 11:59:21;;;;;;;;;;;19.70;53.90;;;;;;5052806;28;20003;-53
2023/07/05 12:01:46;;;;;;;;;;;19.70;54.10;;;;;;5051275;28;20365;-54
2023/07/05 12:04:13;;;;;;;;;;;19.70;54.10;;;;;;5053834;28;20318;-54
2023/07/05 12:06:39;;;;;;;;;;;19.70;54.00;;;;;;5049351;28;19967;-54
2023/07/05 12:09:06;;;;;;;;;;;19.70;54.10;;;;;;5049984;28;19974;-54
2023/07/05 12:11:41;;;;;;;;;;;19.70;54.00;;;;;;5062654;28;19919;-54
2023/07/05 12:14:16;;;;;;;;;;;19.70;54.10;;;;;;5070597;28;20453;-54
2023/07/05 12:16:42;;;;;;;;;;;19.70;54.20;;;;;;5072308;28;20004;-54
2023/07/05 12:19:15;;;;;;;;;;;19.70;53.90;;;;;;5055778;28;19995;-54
2023/07/05 12:21:41;;;;;;;;;;;19.70;53.70;;;;;;5050934;28;19913;-54
2023/07/05 12:24:07;;;;;;;;;;;19.70;53.40;;;;;;5051652;28;19913;-54
2023/07/05 12:26:34;;;;;;;;;;;19.70;54.20;;;;;;5051662;28;19992;-54
2023/07/05 12:29:03;;;;;;;;;;;19.70;53.40;;;;;;5050666;28;20003;-54
2023/07/05 12:31:28;;;;;;;;;;;19.70;53.30;;;;;;5068437;28;20042;-54
2023/07/05 12:33:54;;;;;;;;;;;19.80;53.20;;;;;;5072114;28;19966;-54
2023/07/05 12:36:20;;;;;;;;;;;19.70;53.30;;;;;;5056769;28;19917;-54
2023/07/05 12:38:47;;;;;;;;;;;19.70;53.40;;;;;;5051701;28;20292;-54
2023/07/05 12:41:16;;;;;;;;;;;19.70;53.50;;;;;;5052054;28;19953;-54
2023/07/05 12:43:42;;;;;;;;;;;19.70;53.50;;;;;;5069728;28;19998;-54
2023/07/05 12:46:14;;;;;;;;;;;19.70;53.50;;;;;;5071734;28;20345;-54
2023/07/05 12:48:39;;;;;;;;;;;19.70;53.50;;;;;;5072010;28;19944;-54
2023/07/05 12:51:19;;;;;;;;;;;19.70;53.60;;;;;;5071460;28;20030;-54
2023/07/05 12:53:48;;;;;;;;;;;19.70;53.60;;;;;;5062511;28;19913;-54
2023/07/05 12:56:16;;;;;;;;;;;19.70;53.60;;;;;;5063077;28;19913;-54
2023/07/05 12:58:47;;;;;;;;;;;19.70;53.60;;;;;;5066618;28;19919;-54
2023/07/05 13:01:12;;;;;;;;;;;19.70;53.70;;;;;;5069257;28;19931;-53
2023/07/05 13:03:42;;;;;;;;;;;19.70;53.80;;;;;;5059898;28;19913;-55
2023/07/05 13:06:07;;;;;;;;;;;19.70;53.90;;;;;;5066694;28;20016;-54
2023/07/05 13:08:33;;;;;;;;;;;19.60;54.80;;;;;;5071573;28;20003;-54
2023/07/05 13:10:58;;;;;;;;;;;19.60;54.30;;;;;;5061034;28;19919;-55
2023/07/05 13:13:24;;;;;;;;;;;19.60;54.70;;;;;;5050034;28;20373;-54
2023/07/05 13:15:51;;;;;;;;;;;19.60;54.70;;;;;;5059422;28;19919;-54
2023/07/05 13:18:29;;;;;;;;;;;19.60;55.00;;;;;;5066001;28;20376;-54
2023/07/05 13:21:10;;;;;;;;;;;19.50;55.20;;;;;;5063144;28;19912;-54
2023/07/05 13:23:41;;;;;;;;;;;19.50;55.30;;;;;;5071321;28;19912;-54
2023/07/05 13:26:06;;;;;;;;;;;19.50;55.20;;;;;;5071675;28;19908;-54
2023/07/05 13:28:32;;;;;;;;;;;19.50;55.40;;;;;;5070010;28;19915;-54
2023/07/05 13:30:59;;;;;;;;;;;19.50;55.40;;;;;;5058917;28;19916;-54
2023/07/05 13:33:25;;;;;;;;;;;19.60;55.50;;;;;;5053917;28;19908;-55
2023/07/05 13:35:51;;;;;;;;;;;19.60;55.60;;;;;;5055414;28;20008;-54
2023/07/05 13:38:17;;;;;;;;;;;19.60;56.40;;;;;;5053069;28;19912;-54
2023/07/05 13:40:49;;;;;;;;;;;19.60;55.80;;;;;;5056239;28;19999;-54
2023/07/05 13:43:16;;;;;;;;;;;19.60;55.90;;;;;;5054842;28;20011;-54
2023/07/05 13:45:41;;;;;;;;;;;19.60;56.00;;;;;;5054447;28;19920;-54
2023/07/05 13:48:06;;;;;;;;;;;19.60;56.10;;;;;;5052783;28;19988;-54
2023/07/05 13:50:32;;;;;;;;;;;19.50;56.10;;;;;;5065091;28;19923;-54
2023/07/05 13:52:58;;;;;;;;;;;19.50;56.30;;;;;;5053635;28;19967;-54
2023/07/05 13:55:23;;;;;;;;;;;19.50;56.40;;;;;;5055100;28;19931;-54
2023/07/05 13:57:53;;;;;;;;;;;19.50;56.40;;;;;;5053237;28;19909;-54
2023/07/05 14:00:19;;;;;;;;;;;19.50;56.40;;;;;;5053858;28;19908;-54
2023/07/05 14:02:44;;;;;;;;;;;19.50;56.40;;;;;;5074799;28;19996;-54
2023/07/05 14:05:10;;;;;;;;;;;19.50;56.50;;;;;;5064699;28;20373;-54
2023/07/05 14:07:35;;;;;;;;;;;19.50;56.40;;;;;;5051273;28;19913;-54
2023/07/05 14:10:01;;;;;;;;;;;19.50;56.30;;;;;;5053507;28;19922;-54
2023/07/05 14:12:26;;;;;;;;;;;19.50;56.30;;;;;;5065341;28;19916;-54
2023/07/05 14:14:52;;;;;;;;;;;19.50;56.40;;;;;;5073386;28;19973;-54
2023/07/05 14:17:18;;;;;;;;;;;19.50;56.30;;;;;;5073118;28;19909;-54